Portada
METAR-TAF:

METAR-TAF

Aeroports :

Belgaum, Índia

latitud: 15-51-33N, longitud: 74-37-03E, altitud: 758 m

Observació

L'informe es va fer fa 8 hores i 11 minuts, a les 14:00 UTC
Vent 4 kt del Est
Temperatura 28°C
Humitat 37%
Pressió 1017 hPa
Visibilitat: 8000 m

METAR: VOBM 171400Z 09004KT 8000 NSC 28/12 Q1017

Hora: 03:41 (22:11 UTC)

Pronòstic

L'informe es va fer fa 5 hores i 11 minuts, a les 17:00 UTC
Pronòstic vàlid del 17 a les 18 UTC al 18 a les 03 UTC
Vent 5 kt del Est
Visibilitat: 6000 m
Escasses núvols a una alçada de 1500 ft
Temporalment
l' 18 a les 00 UTC al 18 a les 03 UTC
Visibilitat: 4000 m
Núvols disperses a una alçada de 800 ft
boirina

TAF: VOBM 171700Z 1718/1803 09005KT 6000 FEW015 TEMPO 1800/1803 4000 BR SCT008

Observacions i pronòstics meteorològics de més de 4000 aeroports (METAR i TAF).

Les estacions disponibles són els punts grocs i vermells al mapa.

Posi el ratolí al punt desitjat per veure el nom de l'estació.

Feu clic per veure les observacions i els pronòstics meteorològics.

Per canviar el mapa: feu clic els botons verds amb una creu de color negre per apropar; al botó verd amb un guió per allunyar la imatge; o en les fletxes verdes per a mapes adjacents.


METAR-TAF: